Time;durP1;ratioP1;P1;durP2;ratioP2;P2;SDS_P1;SDS_P2;PMS_P1;PMS_P2;Temp;Humidity;BMP_temperature;BMP_pressure;BME280_temperature;BME280_humidity;BME280_pressure;Samples;Min_cycle;Max_cycle;Signal;HPM_P1;HPM_P2
2022/01/23 00:00:31;;;;;;;10.48;7.05;;;21.20;55.40;;;;;;4929766;28;92652;-88
2022/01/23 00:03:00;;;;;;;8.27;6.82;;;21.20;55.30;;;;;;4911639;28;96008;-84
2022/01/23 00:05:33;;;;;;;9.27;7.25;;;21.20;55.30;;;;;;4929250;28;91995;-83
2022/01/23 00:07:59;;;;;;;7.57;6.78;;;21.20;55.40;;;;;;4929047;28;91963;-86
2022/01/23 00:10:24;;;;;;;8.43;7.53;;;21.20;55.30;;;;;;4928928;28;94050;-84
2022/01/23 00:12:55;;;;;;;8.18;6.82;;;21.10;55.10;;;;;;4929838;28;93180;-83
2022/01/23 00:18:05;;;;;;;9.85;7.13;;;21.10;55.10;;;;;;4930050;28;92544;-79
2022/01/23 00:20:33;;;;;;;8.88;7.57;;;21.10;55.10;;;;;;4928018;28;92987;-84
2022/01/23 00:23:10;;;;;;;8.45;6.68;;;21.10;55.20;;;;;;4911922;28;95629;-90
2022/01/23 00:31:04;;;;;;;8.85;7.07;;;21.10;55.20;;;;;;4929097;28;93466;-84
2022/01/23 00:33:37;;;;;;;7.90;7.20;;;21.10;55.00;;;;;;4927713;28;95052;-84
2022/01/23 00:36:03;;;;;;;10.43;7.10;;;21.10;55.00;;;;;;4928338;28;93980;-84
2022/01/23 00:38:29;;;;;;;7.55;6.75;;;21.10;55.20;;;;;;4928444;28;92564;-87
2022/01/23 00:40:55;;;;;;;8.10;7.30;;;21.00;55.00;;;;;;4929346;28;93894;-89
2022/01/23 00:43:29;;;;;;;8.40;7.65;;;21.00;54.90;;;;;;4929000;28;92945;-86
2022/01/23 00:48:51;;;;;;;8.02;7.22;;;21.00;54.90;;;;;;4929281;28;92523;-89
2022/01/23 00:51:16;;;;;;;8.07;7.30;;;21.00;54.90;;;;;;4928511;28;93838;-83
2022/01/23 00:53:44;;;;;;;8.60;7.70;;;21.00;54.90;;;;;;4928946;28;94886;-87
2022/01/23 00:56:13;;;;;;;10.40;7.85;;;21.00;55.00;;;;;;4933159;28;92687;-83
2022/01/23 00:58:38;;;;;;;8.25;7.43;;;21.00;54.80;;;;;;4930713;28;92389;-89
2022/01/23 01:01:04;;;;;;;9.55;7.38;;;21.00;54.80;;;;;;4931862;28;93787;-83
2022/01/23 01:03:30;;;;;;;9.73;7.63;;;21.00;54.70;;;;;;4932420;28;93524;-85
2022/01/23 01:05:55;;;;;;;9.43;7.72;;;20.90;54.70;;;;;;4914244;28;92065;-86
2022/01/23 01:08:21;;;;;;;9.52;7.80;;;21.00;54.80;;;;;;4931645;28;92508;-86
2022/01/23 01:11:01;;;;;;;7.88;7.10;;;20.90;54.70;;;;;;4931394;28;93211;-85
2022/01/23 01:13:40;;;;;;;7.53;6.82;;;20.90;54.80;;;;;;4913961;28;92798;-83
2022/01/23 01:35:06;;;;;;;8.77;7.63;;;20.90;54.60;;;;;;4931390;28;92765;-86
2022/01/23 01:37:31;;;;;;;8.43;7.55;;;20.90;54.30;;;;;;4931003;28;92733;-85
2022/01/23 01:39:57;;;;;;;8.82;7.93;;;20.90;54.40;;;;;;4930431;28;92584;-85
2022/01/23 01:42:22;;;;;;;9.35;8.23;;;20.90;54.30;;;;;;4932226;28;92761;-84
2022/01/23 01:44:48;;;;;;;8.77;7.88;;;20.90;54.50;;;;;;4932644;28;92457;-87
2022/01/23 01:47:19;;;;;;;8.32;7.47;;;20.80;54.30;;;;;;4913759;28;92761;-85
2022/01/23 01:49:46;;;;;;;8.77;7.68;;;20.80;54.30;;;;;;4930838;28;92832;-87
2022/01/23 01:52:12;;;;;;;8.75;7.78;;;20.80;54.20;;;;;;4929966;28;94047;-84
2022/01/23 01:54:37;;;;;;;8.50;7.75;;;20.80;54.20;;;;;;4932156;28;94148;-88
2022/01/23 01:57:13;;;;;;;8.93;8.13;;;20.80;54.10;;;;;;4932076;28;93282;-87
2022/01/23 02:10:37;;;;;;;9.13;8.07;;;20.80;54.00;;;;;;4931215;28;91348;-83
2022/01/23 02:13:10;;;;;;;8.80;7.88;;;20.80;53.90;;;;;;4930765;28;92876;-86
2022/01/23 02:56:49;;;;;;;8.95;8.18;;;20.70;53.70;;;;;;4932192;28;92372;-85
2022/01/23 02:59:26;;;;;;;9.15;8.35;;;20.70;53.60;;;;;;4931126;28;92661;-89
2022/01/23 03:02:07;;;;;;;8.38;7.57;;;20.70;53.50;;;;;;4932158;28;92297;-87
2022/01/23 03:04:36;;;;;;;9.32;8.02;;;20.70;53.50;;;;;;4931111;28;91730;-88
2022/01/23 03:12:06;;;;;;;8.70;7.90;;;20.60;53.30;;;;;;4930950;28;92820;-89
2022/01/23 03:14:44;;;;;;;9.45;8.45;;;20.70;53.50;;;;;;4931255;28;92505;-87
2022/01/23 03:33:27;;;;;;;8.60;7.70;;;20.60;53.40;;;;;;4931384;28;92687;-87
2022/01/23 03:35:52;;;;;;;8.80;7.90;;;20.60;53.30;;;;;;4930544;28;92395;-86
2022/01/23 03:38:18;;;;;;;9.45;8.52;;;20.60;53.40;;;;;;4928958;28;93595;-82
2022/01/23 03:40:44;;;;;;;8.38;7.63;;;20.60;53.20;;;;;;4912422;28;94329;-84
2022/01/23 03:43:12;;;;;;;8.93;8.13;;;20.60;53.30;;;;;;4930444;28;92980;-83
2022/01/23 03:50:45;;;;;;;8.98;8.18;;;20.60;53.10;;;;;;4930026;28;92904;-84
2022/01/23 03:53:11;;;;;;;9.02;8.23;;;20.60;53.30;;;;;;4913696;28;92039;-84
2022/01/23 03:55:37;;;;;;;8.73;7.97;;;20.60;53.30;;;;;;4931887;28;92067;-86
2022/01/23 03:58:03;;;;;;;8.18;7.47;;;20.50;53.20;;;;;;4929833;28;92597;-88
2022/01/23 04:00:29;;;;;;;8.68;7.78;;;20.50;53.10;;;;;;4930184;28;92783;-86
2022/01/23 04:02:55;;;;;;;8.57;7.78;;;20.50;53.20;;;;;;4930762;28;93437;-84
2022/01/23 04:05:20;;;;;;;8.35;7.55;;;20.50;53.10;;;;;;4930073;28;92500;-85
2022/01/23 04:07:46;;;;;;;8.95;8.07;;;20.50;53.20;;;;;;4929030;28;92718;-87
2022/01/23 04:10:15;;;;;;;8.73;7.93;;;20.50;53.20;;;;;;4930020;28;92726;-88
2022/01/23 04:15:37;;;;;;;8.73;8.03;;;20.50;53.10;;;;;;4930800;28;92215;-84
2022/01/23 04:45:23;;;;;;;9.23;8.40;;;20.40;53.20;;;;;;4933317;28;93053;-85
2022/01/23 05:07:10;;;;;;;8.63;7.83;;;20.40;53.70;;;;;;4933191;28;92515;-84
2022/01/23 05:09:28;;;;;;;8.60;7.80;;;20.40;53.20;;;;;;4929377;28;92470;-88
2022/01/23 05:12:00;;;;;;;8.32;7.53;;;20.40;53.10;;;;;;4914409;28;96379;-85
2022/01/23 05:14:31;;;;;;;9.20;8.30;;;20.40;53.10;;;;;;4932620;28;92159;-84
2022/01/23 05:16:57;;;;;;;8.05;7.35;;;20.40;53.10;;;;;;4932684;28;92075;-84
2022/01/23 05:19:23;;;;;;;8.90;8.10;;;20.30;52.90;;;;;;4932161;28;92829;-84
2022/01/23 05:24:20;;;;;;;9.02;8.23;;;20.30;53.00;;;;;;4932744;28;92929;-85
2022/01/23 05:26:46;;;;;;;9.05;8.25;;;20.30;52.90;;;;;;4915630;28;92387;-87
2022/01/23 05:29:13;;;;;;;9.15;8.35;;;20.40;53.00;;;;;;4932712;28;92700;-89
2022/01/23 05:31:40;;;;;;;8.43;7.72;;;20.30;52.90;;;;;;4932543;28;92228;-86
2022/01/23 05:34:06;;;;;;;8.77;7.97;;;20.30;53.00;;;;;;4933012;28;92561;-86
2022/01/23 05:36:31;;;;;;;8.85;8.05;;;20.30;53.00;;;;;;4933562;28;92898;-84
2022/01/23 05:39:05;;;;;;;9.00;8.20;;;20.30;52.70;;;;;;4915519;28;92335;-84
2022/01/23 05:41:31;;;;;;;8.75;8.05;;;20.30;53.00;;;;;;4914736;28;96893;-88
2022/01/23 05:43:57;;;;;;;8.90;8.10;;;20.30;53.00;;;;;;4916216;28;93909;-84
2022/01/23 05:46:22;;;;;;;8.85;8.13;;;20.30;52.90;;;;;;4933238;28;93214;-88
2022/01/23 05:48:48;;;;;;;8.38;7.57;;;20.30;52.90;;;;;;4932987;28;92832;-86
2022/01/23 05:51:14;;;;;;;8.32;7.63;;;20.30;52.90;;;;;;4933882;28;93243;-88
2022/01/23 05:53:40;;;;;;;8.25;7.45;;;20.20;52.80;;;;;;4933213;28;92844;-89
2022/01/23 05:56:06;;;;;;;8.65;7.85;;;20.30;52.90;;;;;;4933778;28;93453;-83
2022/01/23 05:58:31;;;;;;;8.50;7.80;;;20.30;52.90;;;;;;4932738;28;91957;-87
2022/01/23 06:00:57;;;;;;;8.90;8.10;;;20.30;53.30;;;;;;4933928;28;92914;-88
2022/01/23 06:03:22;;;;;;;7.75;7.15;;;20.20;53.30;;;;;;4933649;28;92587;-84
2022/01/23 06:05:48;;;;;;;8.43;7.75;;;20.20;53.30;;;;;;4932752;28;93051;-85
2022/01/23 06:08:14;;;;;;;9.68;8.88;;;20.30;53.90;;;;;;4932947;28;93017;-87
2022/01/23 06:10:54;;;;;;;9.23;8.43;;;20.30;53.30;;;;;;4914484;28;96146;-83
2022/01/23 06:13:20;;;;;;;8.30;7.60;;;20.30;53.30;;;;;;4932736;28;94072;-89
2022/01/23 06:15:46;;;;;;;9.60;7.53;;;20.20;53.10;;;;;;4933338;28;93005;-89
2022/01/23 06:18:17;;;;;;;9.35;8.13;;;20.20;53.10;;;;;;4932422;28;92563;-89
2022/01/23 06:20:42;;;;;;;8.80;7.97;;;20.20;53.00;;;;;;4932342;28;93097;-89
2022/01/23 06:23:08;;;;;;;9.25;8.45;;;20.20;53.00;;;;;;4914421;28;95220;-86
2022/01/23 06:25:36;;;;;;;8.80;7.90;;;20.20;53.20;;;;;;4933177;28;92876;-81
2022/01/23 06:28:06;;;;;;;8.48;7.78;;;20.20;53.10;;;;;;4932908;28;91863;-89
2022/01/23 06:30:34;;;;;;;9.93;8.18;;;20.30;53.20;;;;;;4931411;28;93081;-86
2022/01/23 06:33:00;;;;;;;8.93;7.53;;;20.30;53.30;;;;;;4931129;28;93093;-84
2022/01/23 06:35:25;;;;;;;9.00;8.20;;;20.30;53.70;;;;;;4930678;28;93535;-87
2022/01/23 06:37:51;;;;;;;8.30;7.60;;;20.40;54.10;;;;;;4930842;28;92856;-82
2022/01/23 06:40:17;;;;;;;7.70;7.05;;;20.50;54.20;;;;;;4930716;28;93990;-82
2022/01/23 06:42:42;;;;;;;8.48;7.57;;;20.50;54.30;;;;;;4930826;28;93301;-83
2022/01/23 06:45:09;;;;;;;7.90;7.10;;;20.50;54.20;;;;;;4913645;28;92957;-83
2022/01/23 06:47:34;;;;;;;7.40;6.70;;;20.60;54.30;;;;;;4913824;28;92531;-86
2022/01/23 06:50:00;;;;;;;7.40;6.70;;;20.60;54.60;;;;;;4931568;28;92788;-87
2022/01/23 06:52:26;;;;;;;7.63;6.93;;;20.60;54.20;;;;;;4930961;28;92780;-87
2022/01/23 06:54:51;;;;;;;7.07;6.38;;;20.70;54.30;;;;;;4931975;28;92732;-88
2022/01/23 06:57:17;;;;;;;7.43;6.80;;;20.70;54.50;;;;;;4930727;28;92902;-88
2022/01/23 06:59:43;;;;;;;6.88;6.28;;;20.70;54.50;;;;;;4930655;28;94993;-83
2022/01/23 07:02:09;;;;;;;7.57;5.90;;;20.70;54.60;;;;;;4931063;28;93392;-86
2022/01/23 07:04:37;;;;;;;6.78;6.18;;;20.80;54.50;;;;;;4930863;28;93057;-82
2022/01/23 07:07:03;;;;;;;7.07;6.47;;;20.80;54.70;;;;;;4931008;28;92628;-84
2022/01/23 07:09:29;;;;;;;9.05;8.25;;;20.80;54.90;;;;;;4929417;28;92812;-85
2022/01/23 07:11:54;;;;;;;6.95;6.25;;;20.80;54.60;;;;;;4913683;28;92864;-83
2022/01/23 07:14:20;;;;;;;8.88;7.97;;;20.80;54.60;;;;;;4930970;28;92361;-87
2022/01/23 07:16:46;;;;;;;9.23;8.32;;;20.80;54.30;;;;;;4930436;28;92004;-84
2022/01/23 07:19:13;;;;;;;9.48;7.85;;;20.80;54.00;;;;;;4929578;28;92966;-83
2022/01/23 07:21:39;;;;;;;8.48;7.55;;;20.80;53.90;;;;;;4929163;28;92938;-85
2022/01/23 07:24:05;;;;;;;9.38;8.35;;;20.80;53.70;;;;;;4929549;28;93368;-84
2022/01/23 07:26:31;;;;;;;9.10;8.27;;;20.80;53.80;;;;;;4929972;28;92503;-84
2022/01/23 07:29:00;;;;;;;9.55;8.65;;;20.80;53.60;;;;;;4929017;28;92740;-84
2022/01/23 07:34:02;;;;;;;9.27;8.32;;;20.80;53.50;;;;;;4928694;28;92894;-88
2022/01/23 07:36:28;;;;;;;9.02;8.20;;;20.80;53.40;;;;;;4929202;28;92284;-88
2022/01/23 07:38:54;;;;;;;8.55;7.85;;;20.80;53.40;;;;;;4930254;28;92681;-86
2022/01/23 07:41:27;;;;;;;8.52;7.80;;;20.80;53.40;;;;;;4930142;28;92694;-87
2022/01/23 07:43:52;;;;;;;7.60;6.95;;;20.80;53.30;;;;;;4929188;28;92491;-84
2022/01/23 07:46:19;;;;;;;8.50;7.70;;;20.80;54.00;;;;;;4912124;28;92014;-84
2022/01/23 07:48:45;;;;;;;7.65;6.95;;;20.80;53.60;;;;;;4929072;28;94257;-85
2022/01/23 07:51:11;;;;;;;7.32;6.00;;;20.70;53.70;;;;;;4929802;28;93471;-86
2022/01/23 07:53:37;;;;;;;7.72;5.80;;;20.80;53.80;;;;;;4933070;28;92592;-87
2022/01/23 07:56:03;;;;;;;7.05;5.93;;;20.80;53.80;;;;;;4930666;28;92406;-86
2022/01/23 07:58:29;;;;;;;13.23;7.95;;;20.70;53.80;;;;;;4929746;28;93027;-88
2022/01/23 08:00:54;;;;;;;12.02;7.88;;;20.80;54.00;;;;;;4929922;28;92911;-85
2022/01/23 08:03:20;;;;;;;15.60;7.57;;;20.70;54.30;;;;;;4929873;28;92081;-83
2022/01/23 08:05:46;;;;;;;17.38;8.02;;;20.70;54.30;;;;;;4932932;28;91892;-82
2022/01/23 08:08:12;;;;;;;14.52;7.60;;;20.80;54.40;;;;;;4933093;28;93383;-82
2022/01/23 08:10:38;;;;;;;19.95;8.82;;;20.80;54.50;;;;;;4932638;28;92929;-86
2022/01/23 08:13:05;;;;;;;16.52;6.80;;;20.80;54.90;;;;;;4933496;28;93797;-83
2022/01/23 08:15:31;;;;;;;49.05;17.50;;;20.80;55.70;;;;;;4929049;28;92355;-83
2022/01/23 08:18:02;;;;;;;61.05;21.52;;;20.90;55.00;;;;;;4932237;28;92933;-86
2022/01/23 08:20:30;;;;;;;61.33;23.65;;;20.90;54.10;;;;;;4930088;28;95469;-85
2022/01/23 08:23:05;;;;;;;47.13;18.55;;;20.90;54.60;;;;;;4931394;28;92097;-82
2022/01/23 08:25:31;;;;;;;59.35;23.67;;;20.90;55.60;;;;;;4930919;28;92343;-84
2022/01/23 08:27:58;;;;;;;48.22;22.77;;;20.90;52.60;;;;;;4930898;28;92626;-84
2022/01/23 08:30:24;;;;;;;46.05;20.73;;;20.90;51.90;;;;;;4931251;28;92444;-84
2022/01/23 08:32:50;;;;;;;42.60;22.15;;;20.90;51.50;;;;;;4930793;28;92551;-88
2022/01/23 08:35:16;;;;;;;39.95;22.35;;;20.80;50.40;;;;;;4898499;28;92007;-83
2022/01/23 08:37:42;;;;;;;40.08;22.70;;;20.90;49.80;;;;;;4930915;28;93808;-83
2022/01/23 08:40:17;;;;;;;39.10;22.52;;;20.90;48.90;;;;;;4931121;28;93808;-83
2022/01/23 08:42:43;;;;;;;40.33;22.23;;;20.80;49.00;;;;;;4931847;28;92815;-84
2022/01/23 08:45:09;;;;;;;34.78;22.75;;;20.80;49.00;;;;;;4930828;28;92923;-88
2022/01/23 08:47:35;;;;;;;37.58;22.92;;;20.80;48.70;;;;;;4931220;28;92986;-83
2022/01/23 08:50:01;;;;;;;34.85;22.10;;;20.80;48.10;;;;;;4933885;28;93130;-84
2022/01/23 08:52:27;;;;;;;34.65;22.65;;;20.80;48.50;;;;;;4937796;28;92017;-82
2022/01/23 08:54:56;;;;;;;31.88;21.77;;;20.80;48.00;;;;;;4932197;28;92332;-86
2022/01/23 08:57:27;;;;;;;30.02;21.98;;;20.80;48.20;;;;;;4930110;28;92632;-86
2022/01/23 08:59:53;;;;;;;36.83;23.02;;;20.80;48.30;;;;;;4930998;28;92715;-83
2022/01/23 09:02:19;;;;;;;34.97;24.00;;;20.80;48.80;;;;;;4931981;28;93676;-83
2022/01/23 09:04:46;;;;;;;31.60;23.42;;;20.80;47.30;;;;;;4931820;28;92573;-85
2022/01/23 09:07:12;;;;;;;37.05;22.88;;;20.80;47.60;;;;;;4932087;28;93232;-87
2022/01/23 09:09:40;;;;;;;32.58;22.95;;;20.80;47.20;;;;;;4931128;28;94137;-84
2022/01/23 09:12:28;;;;;;;29.55;22.00;;;20.80;47.20;;;;;;4932436;28;92487;-83
2022/01/23 09:14:54;;;;;;;33.37;23.77;;;20.80;47.10;;;;;;4930898;28;92856;-86
2022/01/23 09:17:19;;;;;;;28.88;24.15;;;20.80;46.30;;;;;;4929693;28;94194;-86
2022/01/23 09:19:47;;;;;;;29.42;24.02;;;20.80;46.20;;;;;;4929976;28;92783;-85
2022/01/23 09:22:24;;;;;;;;;;;;;;;;;;;;;
2022/01/23 09:24:50;;;;;;;30.00;24.50;;;20.80;45.30;;;;;;4929947;28;92989;-85
2022/01/23 09:27:19;;;;;;;40.72;27.77;;;20.80;46.00;;;;;;4930525;28;94387;-84
2022/01/23 09:29:49;;;;;;;41.08;29.35;;;20.80;46.10;;;;;;4913250;28;95295;-85
2022/01/23 09:32:16;;;;;;;45.15;28.80;;;20.80;45.80;;;;;;4931806;28;92643;-84
2022/01/23 09:34:43;;;;;;;41.70;26.70;;;20.80;45.80;;;;;;4927997;28;92839;-85
2022/01/23 09:37:15;;;;;;;34.15;27.27;;;20.80;45.80;;;;;;4930306;28;92644;-88
2022/01/23 09:39:49;;;;;;;35.17;25.27;;;20.80;45.30;;;;;;4929846;28;93121;-88
2022/01/23 09:42:47;;;;;;;30.42;24.17;;;20.80;45.60;;;;;;4930968;28;92249;-86
2022/01/23 09:45:14;;;;;;;34.77;24.60;;;20.80;46.00;;;;;;4927281;28;92119;-87
2022/01/23 09:47:41;;;;;;;30.80;24.77;;;20.80;45.10;;;;;;4930980;28;93119;-87
2022/01/23 09:50:10;;;;;;;27.67;22.38;;;20.80;44.90;;;;;;4930533;28;95280;-88
2022/01/23 09:52:37;;;;;;;27.60;22.02;;;20.80;46.00;;;;;;4929439;28;93816;-86
2022/01/23 09:55:10;;;;;;;29.13;22.13;;;20.80;46.80;;;;;;4909085;28;92895;-83
2022/01/23 09:57:42;;;;;;;27.77;21.60;;;20.80;45.90;;;;;;4929861;28;93820;-82
2022/01/23 10:00:14;;;;;;;27.73;22.20;;;20.80;46.30;;;;;;4930916;28;93068;-82
2022/01/23 10:02:46;;;;;;;27.58;22.60;;;20.80;45.60;;;;;;4929587;28;92559;-84
2022/01/23 10:05:13;;;;;;;29.52;22.48;;;20.80;46.10;;;;;;4912313;28;92294;-87
2022/01/23 10:07:41;;;;;;;27.85;22.70;;;20.80;47.60;;;;;;4930060;28;93150;-88
2022/01/23 10:10:11;;;;;;;28.37;22.97;;;20.70;47.70;;;;;;4931271;28;91290;-83
2022/01/23 10:12:42;;;;;;;31.10;23.20;;;20.70;48.80;;;;;;4930613;28;92962;-87
2022/01/23 10:15:09;;;;;;;28.83;22.77;;;20.70;48.80;;;;;;4912817;28;92317;-86
2022/01/23 10:17:36;;;;;;;28.92;22.13;;;20.60;49.20;;;;;;4929059;28;94054;-86
2022/01/23 10:20:04;;;;;;;25.17;18.27;;;20.70;48.90;;;;;;4928690;28;93512;-83
2022/01/23 10:22:30;;;;;;;28.67;22.52;;;20.70;49.40;;;;;;4929034;28;92854;-85
2022/01/23 10:25:21;;;;;;;24.95;21.00;;;20.80;48.40;;;;;;4928509;28;94505;-84
2022/01/23 10:27:50;;;;;;;25.17;22.05;;;20.80;47.70;;;;;;4920285;28;92948;-84
2022/01/23 10:30:20;;;;;;;25.33;18.05;;;20.80;47.20;;;;;;4928754;28;92976;-85
2022/01/23 10:32:57;;;;;;;28.15;20.33;;;20.80;47.50;;;;;;4930449;28;92591;-84
2022/01/23 10:35:25;;;;;;;26.08;21.30;;;20.80;47.50;;;;;;4929456;28;92198;-81
2022/01/23 10:37:52;;;;;;;24.48;20.55;;;20.80;46.30;;;;;;4930605;28;93085;-84
2022/01/23 10:40:35;;;;;;;26.63;19.73;;;20.80;46.20;;;;;;4928885;28;92890;-84
2022/01/23 10:48:39;;;;;;;19.83;15.73;;;20.80;48.10;;;;;;4928896;28;92965;-84
2022/01/23 10:51:26;;;;;;;18.13;14.70;;;20.80;48.90;;;;;;4928759;28;94717;-86
2022/01/23 10:54:16;;;;;;;15.43;11.85;;;20.80;49.30;;;;;;4929433;28;92292;-85
2022/01/23 10:57:06;;;;;;;18.90;11.15;;;20.80;49.30;;;;;;4929510;28;92943;-85
2022/01/23 10:59:58;;;;;;;14.35;10.88;;;20.80;49.90;;;;;;4928150;28;92792;-85
2022/01/23 11:02:25;;;;;;;11.85;10.07;;;20.90;51.20;;;;;;4927794;28;92263;-82
2022/01/23 11:04:51;;;;;;;15.30;10.55;;;20.90;51.40;;;;;;4929279;28;92726;-86
2022/01/23 11:07:16;;;;;;;12.23;10.43;;;20.90;51.40;;;;;;4928925;28;92714;-88
2022/01/23 11:09:42;;;;;;;14.85;9.55;;;20.90;51.70;;;;;;4927340;28;94513;-84
2022/01/23 11:12:26;;;;;;;12.07;8.43;;;20.90;52.10;;;;;;4928604;28;93215;-86
2022/01/23 11:18:06;;;;;;;12.00;8.25;;;20.90;52.40;;;;;;4929837;28;92189;-86
2022/01/23 11:20:39;;;;;;;9.63;7.43;;;21.00;53.10;;;;;;4928802;28;92904;-81
2022/01/23 11:23:38;;;;;;;15.82;9.35;;;21.00;52.60;;;;;;4929477;28;93033;-86
2022/01/23 11:26:03;;;;;;;11.68;9.10;;;21.00;52.70;;;;;;4930631;28;92060;-80
2022/01/23 11:28:45;;;;;;;13.27;11.88;;;21.00;52.40;;;;;;4928997;28;91656;-82
2022/01/23 11:31:19;;;;;;;15.45;12.60;;;21.00;51.70;;;;;;4928748;28;92769;-85
2022/01/23 11:33:46;;;;;;;19.70;13.20;;;20.90;51.80;;;;;;4911223;28;96117;-83
2022/01/23 11:36:12;;;;;;;15.55;13.07;;;20.90;51.10;;;;;;4928299;28;93605;-83
2022/01/23 11:38:40;;;;;;;14.05;11.00;;;20.90;51.20;;;;;;4910287;28;92724;-84
2022/01/23 11:55:30;;;;;;;14.40;8.57;;;20.90;53.20;;;;;;4930228;28;92872;-84
2022/01/23 11:57:56;;;;;;;14.18;9.00;;;20.90;53.80;;;;;;4927741;28;93019;-80
2022/01/23 12:00:29;;;;;;;14.55;8.82;;;21.00;54.00;;;;;;4910649;28;92451;-81
2022/01/23 12:03:17;;;;;;;15.60;9.45;;;20.90;54.30;;;;;;4927874;28;95626;-85
2022/01/23 12:06:09;;;;;;;14.77;9.88;;;21.00;54.30;;;;;;4928833;28;93243;-83
2022/01/23 12:08:38;;;;;;;26.70;16.48;;;21.00;54.20;;;;;;4928925;28;92957;-81
2022/01/23 12:18:51;;;;;;;18.80;15.15;;;21.00;66.80;;;;;;4928446;28;92224;-80
2022/01/23 12:21:37;;;;;;;23.30;18.02;;;21.00;62.70;;;;;;4927792;28;91993;-84
2022/01/23 12:24:05;;;;;;;22.05;16.38;;;21.00;58.80;;;;;;4926566;28;92556;-82
2022/01/23 12:26:31;;;;;;;25.88;17.15;;;21.00;58.60;;;;;;4925692;28;92803;-84
2022/01/23 12:29:10;;;;;;;24.35;14.95;;;21.00;58.80;;;;;;4926665;28;93486;-84
2022/01/23 12:31:36;;;;;;;22.13;14.18;;;21.00;56.70;;;;;;4927130;28;92282;-81
2022/01/23 12:34:02;;;;;;;20.70;14.30;;;21.00;56.90;;;;;;4927141;28;93137;-87
2022/01/23 12:36:31;;;;;;;23.95;16.25;;;21.00;56.50;;;;;;4928005;28;92582;-81
2022/01/23 12:39:09;;;;;;;20.90;16.13;;;21.00;55.90;;;;;;4927321;28;92484;-86
2022/01/23 12:41:59;;;;;;;23.67;16.52;;;21.00;55.10;;;;;;4927552;28;92002;-84
2022/01/23 12:44:28;;;;;;;17.98;15.20;;;21.00;54.70;;;;;;4923356;28;93592;-83
2022/01/23 12:46:54;;;;;;;20.77;14.87;;;21.00;55.00;;;;;;4927045;28;92246;-80
2022/01/23 12:49:25;;;;;;;19.25;12.93;;;21.00;55.90;;;;;;4926720;28;92207;-82
2022/01/23 12:52:05;;;;;;;19.45;13.93;;;21.00;56.20;;;;;;4931127;28;93130;-81
2022/01/23 12:54:33;;;;;;;15.38;12.15;;;21.00;56.30;;;;;;4930265;28;93959;-82
2022/01/23 12:57:16;;;;;;;17.00;10.98;;;21.00;56.10;;;;;;4930183;28;95506;-83
2022/01/23 12:59:50;;;;;;;15.25;11.48;;;21.00;56.00;;;;;;4929880;28;92768;-81
2022/01/23 13:02:18;;;;;;;14.65;11.85;;;21.00;56.00;;;;;;4930165;28;93155;-81
2022/01/23 13:04:50;;;;;;;16.23;11.32;;;21.00;55.90;;;;;;4930152;28;93164;-81
2022/01/23 13:07:28;;;;;;;13.20;11.35;;;21.00;55.60;;;;;;4929808;28;92383;-82
2022/01/23 13:10:07;;;;;;;21.33;9.40;;;21.00;55.80;;;;;;4930721;28;92491;-83
2022/01/23 13:17:49;;;;;;;16.00;8.93;;;21.00;55.50;;;;;;4928198;28;92777;-82
2022/01/23 13:34:57;;;;;;;14.82;9.55;;;21.10;55.70;;;;;;4929823;28;92420;-89
2022/01/23 13:37:25;;;;;;;13.30;7.68;;;21.10;55.90;;;;;;4929563;28;93164;-81
2022/01/23 13:39:58;;;;;;;12.85;8.55;;;21.10;55.90;;;;;;4930039;28;93376;-80
2022/01/23 13:59:16;;;;;;;14.80;8.10;;;21.20;56.30;;;;;;4928701;28;92805;-81
2022/01/23 14:04:18;;;;;;;12.18;8.35;;;21.20;56.20;;;;;;4931752;28;92756;-80
2022/01/23 14:06:45;;;;;;;13.65;7.07;;;21.20;56.20;;;;;;4933703;28;92137;-80
2022/01/23 14:09:12;;;;;;;10.88;8.02;;;21.20;56.50;;;;;;4932715;28;92427;-79
2022/01/23 14:11:39;;;;;;;10.77;7.68;;;21.20;56.40;;;;;;4933310;28;92532;-80
2022/01/23 14:14:28;;;;;;;10.85;7.15;;;21.20;56.40;;;;;;4933486;28;93383;-80
2022/01/23 14:16:55;;;;;;;9.97;7.13;;;21.20;56.30;;;;;;4934524;28;92836;-78
2022/01/23 14:19:29;;;;;;;9.57;7.43;;;21.20;56.00;;;;;;4932985;28;92871;-81
2022/01/23 14:21:59;;;;;;;12.73;7.70;;;21.20;56.40;;;;;;4933533;28;92553;-85
2022/01/23 14:24:29;;;;;;;9.82;7.38;;;21.20;56.60;;;;;;4934593;28;92091;-83
2022/01/23 14:27:11;;;;;;;8.60;6.15;;;21.20;56.60;;;;;;4933184;28;92019;-84
2022/01/23 14:29:51;;;;;;;11.23;6.25;;;21.30;56.80;;;;;;4934121;28;92722;-82
2022/01/23 14:32:36;;;;;;;12.10;6.50;;;21.30;56.40;;;;;;4934687;28;91747;-80
2022/01/23 14:35:12;;;;;;;8.77;6.30;;;21.30;56.60;;;;;;4933649;28;92340;-82
2022/01/23 14:37:40;;;;;;;12.00;6.45;;;21.30;56.60;;;;;;4932894;28;92645;-79
2022/01/23 14:40:11;;;;;;;14.30;6.50;;;21.30;57.00;;;;;;4915649;28;97814;-82
2022/01/23 14:42:37;;;;;;;11.32;6.50;;;21.40;57.30;;;;;;4930991;28;93474;-81
2022/01/23 14:45:05;;;;;;;11.73;6.70;;;21.40;57.40;;;;;;4933199;28;93009;-81
2022/01/23 14:47:51;;;;;;;10.95;6.32;;;21.40;57.50;;;;;;4933059;28;92459;-78
2022/01/23 14:50:20;;;;;;;13.50;7.65;;;21.40;57.60;;;;;;4931544;28;92671;-81
2022/01/23 14:52:48;;;;;;;14.90;6.82;;;21.40;57.70;;;;;;4932312;28;92506;-80
2022/01/23 14:55:14;;;;;;;10.30;6.57;;;21.40;58.00;;;;;;4933119;28;92508;-79
2022/01/23 14:57:44;;;;;;;13.93;6.90;;;21.40;58.00;;;;;;4931982;28;91317;-81
2022/01/23 15:00:12;;;;;;;14.57;8.13;;;21.40;58.10;;;;;;4931819;28;92694;-79
2022/01/23 15:02:37;;;;;;;12.82;6.95;;;21.40;58.30;;;;;;4930295;28;93227;-82
2022/01/23 15:05:04;;;;;;;15.02;8.00;;;21.40;58.30;;;;;;4929443;28;94304;-83
2022/01/23 15:07:41;;;;;;;13.13;7.30;;;21.40;58.60;;;;;;4929418;28;93492;-85
2022/01/23 15:10:17;;;;;;;13.75;6.88;;;21.40;58.80;;;;;;4929556;28;93091;-86
2022/01/23 15:12:43;;;;;;;17.40;7.40;;;21.40;58.90;;;;;;4928539;28;96155;-80
2022/01/23 15:15:09;;;;;;;15.70;7.13;;;21.40;58.90;;;;;;4932178;28;92461;-79
2022/01/23 15:17:36;;;;;;;12.27;7.57;;;21.50;59.00;;;;;;4914523;28;92059;-83
2022/01/23 15:20:02;;;;;;;13.50;6.10;;;21.40;59.10;;;;;;4929726;28;93403;-79
2022/01/23 15:22:28;;;;;;;16.30;8.20;;;21.50;58.60;;;;;;4930074;28;92674;-84
2022/01/23 15:24:54;;;;;;;21.33;7.57;;;21.50;58.00;;;;;;4931306;28;93061;-80
2022/01/23 15:27:19;;;;;;;22.13;7.70;;;21.50;58.50;;;;;;4932303;28;92566;-80
2022/01/23 15:29:45;;;;;;;18.13;7.43;;;21.50;58.90;;;;;;4934729;28;93289;-79
2022/01/23 15:32:11;;;;;;;15.63;7.68;;;21.50;58.90;;;;;;4934936;28;93331;-80
2022/01/23 15:34:37;;;;;;;13.68;7.13;;;21.60;59.20;;;;;;4934895;28;92552;-81
2022/01/23 15:37:04;;;;;;;20.98;7.70;;;21.60;59.40;;;;;;4935792;28;92113;-80
2022/01/23 15:39:31;;;;;;;17.35;7.57;;;21.60;60.00;;;;;;4933762;28;92948;-80
2022/01/23 15:41:58;;;;;;;21.77;7.22;;;21.60;60.10;;;;;;4934773;28;92715;-82
2022/01/23 15:44:24;;;;;;;18.05;6.90;;;21.60;60.70;;;;;;4931990;28;92957;-83
2022/01/23 15:46:50;;;;;;;25.05;6.82;;;21.60;60.60;;;;;;4933091;28;92587;-81
2022/01/23 15:49:24;;;;;;;21.75;7.05;;;21.60;61.20;;;;;;4931762;28;92531;-80
2022/01/23 15:51:50;;;;;;;12.07;6.75;;;21.60;61.40;;;;;;4917228;28;95131;-80
2022/01/23 15:54:18;;;;;;;19.50;7.15;;;21.70;61.80;;;;;;4935537;28;92903;-80
2022/01/23 15:56:47;;;;;;;18.35;7.57;;;21.70;61.90;;;;;;4934956;28;92572;-79
2022/01/23 15:59:17;;;;;;;18.48;7.30;;;21.70;62.20;;;;;;4933376;28;92909;-81
2022/01/23 16:01:46;;;;;;;17.05;7.07;;;21.70;62.00;;;;;;4916258;28;95254;-82
2022/01/23 16:04:15;;;;;;;22.80;8.10;;;21.70;62.50;;;;;;4932063;28;92856;-81
2022/01/23 16:06:41;;;;;;;20.20;7.50;;;21.70;61.70;;;;;;4931735;28;92813;-83
2022/01/23 16:09:07;;;;;;;15.82;7.10;;;21.70;60.90;;;;;;4924420;28;92899;-82
2022/01/23 16:11:33;;;;;;;16.58;7.05;;;21.70;61.50;;;;;;4928516;28;94903;-81
2022/01/23 16:13:58;;;;;;;14.15;7.07;;;21.70;61.80;;;;;;4931908;28;92385;-81
2022/01/23 16:16:24;;;;;;;13.35;7.18;;;21.70;61.40;;;;;;4930454;28;92850;-80
2022/01/23 16:18:50;;;;;;;16.25;6.93;;;21.70;61.80;;;;;;4928704;28;93733;-85
2022/01/23 16:21:17;;;;;;;21.20;7.57;;;21.70;62.30;;;;;;4928393;28;93724;-81
2022/01/23 16:23:43;;;;;;;14.07;7.13;;;21.70;61.30;;;;;;4912679;28;92642;-83
2022/01/23 16:26:19;;;;;;;15.25;6.47;;;21.70;61.90;;;;;;4929661;28;92671;-83
2022/01/23 16:28:45;;;;;;;14.55;8.27;;;21.70;62.30;;;;;;4932324;28;92462;-80
2022/01/23 16:31:11;;;;;;;16.48;8.00;;;21.70;60.10;;;;;;4931918;28;92783;-80
2022/01/23 16:33:38;;;;;;;19.17;8.02;;;21.70;60.30;;;;;;4929501;28;92045;-79
2022/01/23 16:36:06;;;;;;;14.45;7.95;;;21.80;59.70;;;;;;4930138;28;91460;-80
2022/01/23 16:38:33;;;;;;;17.88;9.43;;;21.80;60.70;;;;;;4929461;28;93147;-81
2022/01/23 16:40:59;;;;;;;12.10;9.30;;;21.80;60.20;;;;;;4929917;28;92846;-80